Vermilion Bay, Canada
Current Conditions -  °F | °C
As of 4:00 AM on Friday 31 Oct 2014 (Local Time) from CYHD Reporting Station
Overcast Overcast  
Wind Chill: 18°   Ceiling: 2100
Heat Index: 25°   Visibility: 9mi
Dew Point: 19°   Wind: 6mph
Humidity: 80%   Direction: 30°NNE
Pressure: 30.52"   Gusts: NA
Location:  49.85°N, 93.38°W
Report Text: CYHD 310900Z AUTO 03005KT 320V060 9SM OVC021 M04/M07 A3052 RMK SLP364
Loading
Personal Weather Stations






























Interactive Weather Map
Tropical Storm Tracking
New forecast layout! Learn more

10-Day Weather Forecast

Advertisements
Track Severe Weather on mobile